Airfield :
LOGIN :

Register | Disclaimer

   EN    FR    IT 

 










Legend :    VFR   Marginal VFR   IFR   Intensive IFR   Very Intensive IFR
Visi :
Ceiling :
>= 8 km
>= 3000ft
5 to 8 km
1000 to 3000 ft
1500m to 5 km
500 to 1000 ft
800 to 1500m
200 to 500 ft
< 800m
< 200 ft
Symbols :   Thunderstorms  Fog  Heavy snow  Heavy precipitations  Wind > 20 kt
SIGMETs :     Misc.  Thunderstorms  Icing  Turbulence  Mountain Waves  Volcanic Ashes






- Airport Elevation : 45 ft
- IATA code : CEG


EGNR - Hawarden Chester

CURRENT METAR :
  • 101050Z 01006KT 350V060 9999 SCT045 07/M03 Q1016

EXPIRED METARs :
  • 101020Z 36006KT 310V050 9999 FEW045 07/M03 Q1016
  • 100950Z 36007KT 330V030 9999 FEW045 07/M02 Q1017
  • 100920Z 36007KT 330V030 9999 FEW041 07/M02 Q1017
  • 100850Z 36007KT 9999 FEW042 06/M01 Q1017
  • 100820Z 35005KT 310V040 9999 FEW042 05/M01 Q1017

TAF TAF EGNR
Valid from the 10 at 09:00 until the 10 at 18:00 UTC


100759Z 1009/1018 34008KT 9999 FEW035
PROB40
TEMPO 1009/1018 8000 -SHRA



MET'MAP, your aeronautical weather chart ! - Copyright ORBIFLY December 2007 - Disclaimer

ORBIFLY MET'MAP TEAM :

Programming & Development : Alexandra Zaïnal
Concept & original design : Baudouin d'Aumeries
Assistance for programming : Marc-Olivier Méhu
Technical & hardware support : Manuel Goepfert

Contact : metmap@orbifly.com




SOURCES & CREDITS :

   NOAA